Time;durP1;ratioP1;P1;durP2;ratioP2;P2;SDS_P1;SDS_P2;PMS_P1;PMS_P2;Temp;Humidity;BMP_temperature;BMP_pressure;BME280_temperature;BME280_humidity;BME280_pressure;Samples;Min_cycle;Max_cycle;Signal;HPM_P1;HPM_P2
2021/05/18 00:00:46;;;;;;;;;8.75;7.00;;;;;11.34;94.76;98476.41;3570233;40;14181;-61
2021/05/18 00:03:16;;;;;;;;;7.75;7.75;;;;;11.37;94.70;98484.19;3579718;40;14011;-62
2021/05/18 00:05:52;;;;;;;;;9.00;9.00;;;;;11.28;94.83;98491.22;3572151;40;14196;-62
2021/05/18 00:08:21;;;;;;;;;13.00;10.00;;;;;11.24;95.27;98494.28;3572173;40;14205;-61
2021/05/18 00:13:47;;;;;;;;;10.25;8.75;;;;;11.20;96.02;98491.84;3571280;40;14039;-62
2021/05/18 00:16:15;;;;;;;;;11.50;10.00;;;;;11.34;95.98;98497.91;3570018;40;14172;-61
2021/05/18 00:18:43;;;;;;;;;10.75;9.00;;;;;11.19;96.32;98495.53;3570024;40;14119;-62
2021/05/18 00:21:10;;;;;;;;;12.75;11.75;;;;;11.18;97.17;98493.81;3577031;40;14066;-62
2021/05/18 00:23:38;;;;;;;;;10.75;9.25;;;;;11.19;97.37;98500.06;3569452;40;14086;-62
2021/05/18 00:26:08;;;;;;;;;12.75;12.25;;;;;11.08;97.19;98497.38;3569291;40;14030;-62
2021/05/18 00:28:36;;;;;;;;;9.25;9.25;;;;;11.06;97.86;98492.16;3571067;40;14058;-61
2021/05/18 00:31:04;;;;;;;;;9.50;9.50;;;;;11.01;97.30;98499.75;3569609;40;14080;-61
2021/05/18 00:33:32;;;;;;;;;11.25;8.75;;;;;11.00;97.60;98500.69;3570772;40;14592;-61
2021/05/18 00:36:01;;;;;;;;;8.75;8.75;;;;;11.17;96.98;98508.22;3581452;40;14664;-62
2021/05/18 00:38:29;;;;;;;;;5.25;4.00;;;;;11.07;96.09;98509.13;3571128;40;14039;-62
2021/05/18 00:40:57;;;;;;;;;7.00;7.00;;;;;11.07;97.38;98504.59;3580168;40;14044;-62
2021/05/18 00:43:24;;;;;;;;;7.50;7.00;;;;;10.94;96.49;98507.44;3577606;40;14251;-62
2021/05/18 00:45:52;;;;;;;;;7.75;6.00;;;;;10.95;97.48;98508.28;3570245;40;14191;-62
2021/05/18 00:48:22;;;;;;;;;8.75;6.25;;;;;10.96;95.44;98518.06;3571896;40;14090;-61
2021/05/18 00:50:57;;;;;;;;;7.75;6.00;;;;;10.88;96.44;98523.22;3568241;40;14017;-61
2021/05/18 00:53:25;;;;;;;;;6.25;4.50;;;;;10.96;96.14;98515.38;3569329;40;14251;-61
2021/05/18 00:55:58;;;;;;;;;4.00;2.00;;;;;10.78;96.26;98523.09;3568987;40;14035;-61
2021/05/18 00:58:37;;;;;;;;;6.00;6.00;;;;;10.81;96.98;98530.03;3571230;40;14019;-62
2021/05/18 01:01:18;;;;;;;;;4.00;3.75;;;;;10.74;96.88;98532.34;3576426;40;14194;-62
2021/05/18 01:03:50;;;;;;;;;7.00;6.00;;;;;10.76;96.21;98533.94;3562966;40;14036;-62
2021/05/18 01:06:25;;;;;;;;;3.25;3.25;;;;;10.80;96.27;98531.03;3569015;40;14007;-61
2021/05/18 01:08:59;;;;;;;;;4.25;4.25;;;;;10.79;95.81;98524.78;3576577;40;14037;-61
2021/05/18 01:11:31;;;;;;;;;5.75;4.00;;;;;10.76;95.95;98533.94;3571265;40;14052;-61
2021/05/18 01:14:04;;;;;;;;;3.00;3.00;;;;;10.77;95.80;98532.97;3571089;40;14571;-62
2021/05/18 01:16:35;;;;;;;;;2.25;2.25;;;;;10.73;95.52;98536.03;3569380;40;14041;-62
2021/05/18 01:19:07;;;;;;;;;4.50;3.00;;;;;10.68;96.07;98524.81;3569477;40;14051;-63
2021/05/18 01:21:35;;;;;;;;;3.25;2.25;;;;;10.81;95.22;98530.03;3570695;40;14007;-62
2021/05/18 01:24:05;;;;;;;;;1.75;1.75;;;;;10.82;93.13;98527.25;3571319;40;14038;-62
2021/05/18 01:26:35;;;;;;;;;1.75;1.75;;;;;10.76;93.99;98533.09;3570925;40;14141;-62
2021/05/18 01:29:05;;;;;;;;;3.00;3.00;;;;;10.78;93.38;98528.47;3572384;40;14204;-62
2021/05/18 01:31:33;;;;;;;;;2.25;2.00;;;;;10.72;93.84;98535.19;3570417;40;14022;-62
2021/05/18 01:34:03;;;;;;;;;3.25;2.00;;;;;10.70;93.99;98531.75;3570762;40;13978;-61
2021/05/18 01:36:36;;;;;;;;;1.25;1.25;;;;;10.70;94.55;98531.75;3569877;40;13988;-61
2021/05/18 01:44:35;;;;;;;;;2.00;1.00;;;;;10.62;93.45;98533.38;3571053;40;14177;-61
2021/05/18 01:47:06;;;;;;;;;2.00;1.00;;;;;10.55;93.17;98530.31;3572694;40;14012;-60
2021/05/18 01:49:33;;;;;;;;;1.00;1.00;;;;;10.64;93.79;98532.28;3570905;40;13976;-61
2021/05/18 01:52:04;;;;;;;;;1.00;1.00;;;;;10.53;94.31;98534.94;3573639;40;13975;-62
2021/05/18 01:54:34;;;;;;;;;1.00;1.00;;;;;10.60;93.36;98541.53;3569848;40;14180;-60
2021/05/18 01:57:17;;;;;;;;;0.00;0.00;;;;;10.69;91.69;98535.44;3569627;40;14026;-60
2021/05/18 01:59:47;;;;;;;;;1.00;1.00;;;;;10.69;91.44;98540.81;3569492;40;13996;-61
2021/05/18 02:02:14;;;;;;;;;1.00;1.00;;;;;10.71;91.73;98549.56;3569337;40;14007;-61
2021/05/18 02:04:56;;;;;;;;;1.50;1.00;;;;;10.70;91.45;98547.88;3570866;40;13995;-61
2021/05/18 02:07:30;;;;;;;;;1.75;1.00;;;;;10.55;92.00;98549.09;3567563;40;14021;-61
2021/05/18 02:09:58;;;;;;;;;1.00;0.00;;;;;10.64;92.32;98555.59;3569512;40;14168;-61
2021/05/18 02:12:26;;;;;;;;;0.50;0.50;;;;;10.65;91.77;98550.06;3570618;40;14234;-61
2021/05/18 02:14:59;;;;;;;;;1.00;0.00;;;;;10.56;91.98;98550.81;3571460;40;14129;-61
2021/05/18 02:25:13;;;;;;;;;0.00;0.00;;;;;10.68;90.78;98576.66;3569997;40;13999;-61
2021/05/18 02:27:40;;;;;;;;;0.50;0.50;;;;;10.57;90.50;98574.00;3569240;40;14020;-61
2021/05/18 02:30:10;;;;;;;;;1.00;1.00;;;;;10.60;89.78;98572.91;3569935;40;14186;-61
2021/05/18 02:32:38;;;;;;;;;1.00;1.00;;;;;10.67;89.49;98574.97;3567648;40;14208;-61
2021/05/18 02:35:08;;;;;;;;;16.25;12.75;;;;;10.68;89.38;98584.72;3570603;40;14104;-61
2021/05/18 02:37:39;;;;;;;;;1.75;1.00;;;;;10.73;88.77;98584.34;3567950;40;14046;-60
2021/05/18 02:40:17;;;;;;;;;5.00;5.00;;;;;10.66;89.20;98588.50;3576405;40;14958;-61
2021/05/18 02:42:49;;;;;;;;;3.00;3.00;;;;;10.61;88.60;98594.25;3565728;40;14043;-60
2021/05/18 02:45:49;;;;;;;;;2.00;2.00;;;;;10.63;89.40;98588.75;3566025;40;14048;-61
2021/05/18 02:50:51;;;;;;;;;1.00;1.00;;;;;10.64;89.32;98596.69;3575830;40;14009;-61
2021/05/18 02:53:19;;;;;;;;;0.25;0.25;;;;;10.67;87.93;98601.81;3576928;40;14023;-62
2021/05/18 02:58:24;;;;;;;;;0.50;0.00;;;;;10.83;87.53;98597.91;3567353;40;13998;-61
2021/05/18 03:00:52;;;;;;;;;0.50;0.00;;;;;10.79;86.85;98601.81;3569491;40;14213;-61
2021/05/18 03:03:20;;;;;;;;;0.00;0.00;;;;;10.71;87.23;98603.25;3576655;40;14579;-61
2021/05/18 03:05:47;;;;;;;;;0.75;0.00;;;;;10.69;87.21;98601.66;3576423;40;14051;-61
2021/05/18 03:08:14;;;;;;;;;0.00;0.00;;;;;10.73;86.57;98614.75;3592921;40;14239;-61
2021/05/18 03:10:42;;;;;;;;;1.00;0.00;;;;;10.73;86.89;98620.09;3574221;40;14121;-61
2021/05/18 03:13:09;;;;;;;;;0.00;0.00;;;;;10.60;87.38;98611.31;3566773;40;14011;-61
2021/05/18 03:15:37;;;;;;;;;1.25;0.00;;;;;10.74;86.57;98624.53;3573733;40;14029;-61
2021/05/18 03:18:05;;;;;;;;;1.00;1.00;;;;;10.73;86.08;98630.00;3567063;40;14224;-61
2021/05/18 03:20:32;;;;;;;;;0.75;0.75;;;;;10.67;86.99;98628.66;3568086;40;14023;-61
2021/05/18 03:23:00;;;;;;;;;0.00;0.00;;;;;10.78;86.10;98625.13;3576648;40;14174;-60
2021/05/18 03:25:27;;;;;;;;;0.75;0.75;;;;;10.68;86.66;98635.72;3576686;40;14044;-60
2021/05/18 03:27:57;;;;;;;;;0.00;0.00;;;;;10.76;86.18;98627.91;3577196;40;14535;-61
2021/05/18 03:30:47;;;;;;;;;0.75;0.75;;;;;10.72;85.84;98623.78;3569256;40;14144;-61
2021/05/18 03:35:59;;;;;;;;;0.00;0.00;;;;;10.76;86.22;98643.16;3567310;40;14036;-61
2021/05/18 03:38:31;;;;;;;;;0.00;0.00;;;;;10.74;85.93;98639.75;3569471;40;14022;-62
2021/05/18 03:41:04;;;;;;;;;0.75;0.75;;;;;10.76;86.05;98637.81;3566953;40;14054;-62
2021/05/18 04:18:32;;;;;;;;;0.00;0.00;;;;;10.94;84.58;98689.22;3572960;40;14019;-61
2021/05/18 04:21:18;;;;;;;;;0.00;0.00;;;;;10.88;85.11;98690.53;3576922;40;14147;-61
2021/05/18 04:51:33;;;;;;;;;0.25;0.00;;;;;11.31;83.41;98729.25;3566769;40;14024;-60
2021/05/18 04:59:23;;;;;;;;;1.00;1.00;;;;;11.27;83.72;98722.41;3572390;40;14070;-61
2021/05/18 05:07:09;;;;;;;;;1.50;0.00;;;;;11.63;82.74;98730.19;3575282;40;14205;-59
2021/05/18 05:09:41;;;;;;;;;0.75;0.75;;;;;11.58;80.97;98727.03;3575929;40;13993;-61
2021/05/18 05:14:48;;;;;;;;;1.00;1.00;;;;;11.71;81.84;98731.41;3576072;40;13998;-61
2021/05/18 05:17:16;;;;;;;;;0.00;0.00;;;;;11.65;81.18;98736.31;3566561;40;14011;-61
2021/05/18 05:19:44;;;;;;;;;1.25;1.00;;;;;11.85;80.72;98740.06;3565879;40;14131;-61
2021/05/18 05:22:13;;;;;;;;;0.00;0.00;;;;;11.86;81.60;98743.63;3573447;40;14046;-62
2021/05/18 05:24:43;;;;;;;;;2.00;1.00;;;;;11.78;79.84;98738.00;3573140;40;14617;-60
2021/05/18 05:27:11;;;;;;;;;1.00;1.00;;;;;11.86;80.13;98749.03;3580052;40;14488;-60
2021/05/18 05:29:58;;;;;;;;;1.00;0.25;;;;;11.83;78.95;98739.34;3572501;40;14054;-60
2021/05/18 05:32:25;;;;;;;;;1.00;1.00;;;;;11.77;79.94;98745.22;3575537;40;14218;-60
2021/05/18 05:34:53;;;;;;;;;2.00;1.00;;;;;11.72;80.42;98743.91;3574825;40;14034;-61
2021/05/18 05:37:20;;;;;;;;;2.00;0.00;;;;;11.73;79.47;98753.66;3570372;40;14003;-60
2021/05/18 05:39:48;;;;;;;;;1.00;1.00;;;;;11.64;79.98;98753.44;3591752;40;14010;-61
2021/05/18 05:42:16;;;;;;;;;1.00;1.00;;;;;11.62;80.16;98746.47;3569490;40;14073;-61
2021/05/18 05:44:44;;;;;;;;;1.00;1.00;;;;;11.64;80.55;98748.06;3565702;40;14137;-60
2021/05/18 05:47:11;;;;;;;;;2.00;1.00;;;;;11.61;79.68;98755.50;3565985;40;14048;-60
2021/05/18 05:49:40;;;;;;;;;1.00;0.00;;;;;11.61;79.63;98753.69;3566228;40;13016;-59
2021/05/18 05:52:09;;;;;;;;;2.00;0.75;;;;;11.55;80.67;98761.38;3565727;40;14524;-61
2021/05/18 05:54:36;;;;;;;;;0.25;0.25;;;;;11.65;79.56;98760.50;3564817;40;13046;-60
2021/05/18 05:57:04;;;;;;;;;1.00;1.00;;;;;11.61;79.79;98763.56;3566010;40;14226;-61
2021/05/18 05:59:31;;;;;;;;;1.75;1.00;;;;;11.61;80.64;98763.56;3565659;40;14206;-61
2021/05/18 06:01:59;;;;;;;;;0.00;0.00;;;;;11.89;79.39;98772.97;3572095;40;14109;-61
2021/05/18 06:04:27;;;;;;;;;0.75;0.75;;;;;11.85;78.27;98768.81;3576182;40;13999;-60
2021/05/18 06:06:54;;;;;;;;;2.50;1.00;;;;;11.82;79.35;98766.34;3567769;40;14030;-61
2021/05/18 06:09:23;;;;;;;;;1.00;1.00;;;;;12.07;77.51;98787.59;3565931;40;14010;-61
2021/05/18 06:47:31;;;;;;;;;0.00;0.00;;;;;13.70;69.74;98830.38;3567028;40;13941;-61
2021/05/18 06:52:45;;;;;;;;;0.00;0.00;;;;;13.76;70.96;98832.50;3567135;40;14515;-60
2021/05/18 06:55:18;;;;;;;;;0.75;0.75;;;;;13.49;72.02;98824.16;3574283;40;13984;-61
2021/05/18 06:57:48;;;;;;;;;1.00;0.00;;;;;13.37;71.91;98824.22;3566410;40;14269;-60
2021/05/18 07:00:20;;;;;;;;;0.00;0.00;;;;;13.22;71.55;98832.75;3567442;40;14249;-60
2021/05/18 07:02:51;;;;;;;;;0.00;0.00;;;;;13.22;71.52;98830.94;3573992;40;14030;-61
2021/05/18 07:10:35;;;;;;;;;0.25;0.25;;;;;13.28;71.29;98837.66;3576818;40;14043;-61
2021/05/18 07:13:02;;;;;;;;;1.00;0.00;;;;;13.43;71.63;98841.75;3576538;40;14040;-60
2021/05/18 07:15:30;;;;;;;;;0.00;0.00;;;;;13.45;71.52;98844.28;3576639;40;13975;-61
2021/05/18 07:17:58;;;;;;;;;0.00;0.00;;;;;13.51;71.23;98849.16;3577062;40;14033;-61
2021/05/18 07:20:26;;;;;;;;;0.00;0.00;;;;;13.71;71.68;98850.09;3577158;40;14026;-61
2021/05/18 07:22:55;;;;;;;;;0.00;0.00;;;;;13.83;71.10;98860.66;3575881;40;14017;-61
2021/05/18 07:25:23;;;;;;;;;0.00;0.00;;;;;13.82;70.70;98863.50;3592505;40;14214;-61
2021/05/18 07:27:51;;;;;;;;;0.00;0.00;;;;;13.88;70.18;98856.72;3575895;40;14521;-61
2021/05/18 07:30:19;;;;;;;;;5.00;3.25;;;;;14.02;69.58;98857.19;3576407;40;14039;-59
2021/05/18 07:32:46;;;;;;;;;1.00;0.00;;;;;14.34;68.27;98857.97;3583853;40;14021;-60
2021/05/18 07:35:14;;;;;;;;;1.00;1.00;;;;;14.63;67.41;98877.81;3576545;40;14790;-61
2021/05/18 07:37:41;;;;;;;;;0.00;0.00;;;;;14.93;67.91;98876.03;3576705;40;13956;-61
2021/05/18 07:40:10;;;;;;;;;1.00;1.00;;;;;15.42;66.67;98866.00;3576199;40;13965;-61
2021/05/18 07:42:37;;;;;;;;;0.00;0.00;;;;;15.61;65.45;98875.91;3576650;40;13945;-61
2021/05/18 07:45:06;;;;;;;;;1.50;0.00;;;;;15.64;65.28;98880.19;3577056;40;14089;-61
2021/05/18 07:47:36;;;;;;;;;0.00;0.00;;;;;15.42;65.70;98893.03;3576861;40;13955;-61
2021/05/18 07:50:13;;;;;;;;;0.00;0.00;;;;;15.47;64.29;98885.34;3583633;40;13920;-60
2021/05/18 08:06:28;;;;;;;;;1.00;1.00;;;;;15.60;65.08;98895.84;3570158;40;14207;-61
2021/05/18 08:08:55;;;;;;;;;2.00;0.00;;;;;15.64;64.24;98908.13;3583522;40;14116;-62
2021/05/18 08:11:25;;;;;;;;;2.00;1.00;;;;;15.72;64.07;98904.72;3576816;40;13991;-61
2021/05/18 08:13:55;;;;;;;;;0.50;0.00;;;;;15.53;64.10;98922.66;3575192;40;14043;-62
2021/05/18 10:38:25;;;;;;;;;1.00;1.00;;;;;17.95;56.64;99006.38;3574173;40;12784;-57
2021/05/18 10:41:12;;;;;;;;;2.50;1.00;;;;;16.97;60.01;98988.31;3566335;40;12466;-53
2021/05/18 10:43:41;;;;;;;;;0.25;0.25;;;;;17.38;58.54;98988.72;3565011;40;12730;-54
2021/05/18 10:46:22;;;;;;;;;1.00;1.00;;;;;17.18;58.16;98993.44;3564760;40;12613;-57
2021/05/18 10:49:13;;;;;;;;;0.25;0.25;;;;;17.78;57.23;98989.06;3566694;40;13086;-54
2021/05/18 10:51:53;;;;;;;;;0.25;0.25;;;;;17.05;59.49;98981.09;3566829;40;12741;-56
2021/05/18 10:54:29;;;;;;;;;0.75;0.75;;;;;16.80;59.13;98993.53;3573696;40;13320;-57
2021/05/18 10:56:59;;;;;;;;;0.75;0.75;;;;;16.92;61.05;99001.47;3574039;40;12977;-59
2021/05/18 10:59:47;;;;;;;;;1.00;1.00;;;;;17.23;59.89;99000.13;3574533;40;12983;-59
2021/05/18 11:02:34;;;;;;;;;1.00;1.00;;;;;17.39;59.64;98998.56;3570639;40;12891;-58
2021/05/18 11:05:01;;;;;;;;;1.50;0.00;;;;;17.05;60.37;99012.81;3574463;40;13334;-60
2021/05/18 11:07:50;;;;;;;;;2.00;1.00;;;;;17.09;58.93;99012.34;3574864;40;12878;-60
2021/05/18 11:10:19;;;;;;;;;1.00;1.00;;;;;18.16;58.80;99016.03;3566402;40;12887;-60
2021/05/18 11:12:52;;;;;;;;;1.00;1.00;;;;;17.92;57.23;99022.13;3575164;40;12886;-60
2021/05/18 11:15:24;;;;;;;;;2.00;1.00;;;;;18.15;56.36;99026.06;3577248;40;12636;-61
2021/05/18 11:17:56;;;;;;;;;2.00;1.00;;;;;17.36;56.58;99015.16;3576762;40;12771;-59
2021/05/18 11:23:26;;;;;;;;;1.25;1.00;;;;;16.81;59.73;99022.34;3576729;40;12748;-62
2021/05/18 11:26:03;;;;;;;;;1.00;0.50;;;;;16.75;60.83;99016.66;3577084;40;12756;-60
2021/05/18 11:28:37;;;;;;;;;1.00;1.00;;;;;16.57;61.68;99031.00;3576078;40;12775;-61
2021/05/18 11:31:26;;;;;;;;;1.50;1.50;;;;;16.45;59.90;99033.00;3566296;40;13967;-60
2021/05/18 11:34:00;;;;;;;;;0.00;0.00;;;;;16.14;58.12;99050.50;3567035;40;13988;-59
2021/05/18 11:36:41;;;;;;;;;2.00;0.50;;;;;16.41;58.30;99037.03;3566483;40;14701;-59
2021/05/18 11:39:16;;;;;;;;;0.75;0.75;;;;;17.04;55.98;99030.94;3566316;40;13971;-60
2021/05/18 11:41:45;;;;;;;;;1.00;1.00;;;;;17.58;56.53;99030.97;3566325;40;13291;-62
2021/05/18 11:44:14;;;;;;;;;1.75;1.00;;;;;17.50;55.51;99044.47;3566893;40;12605;-59
2021/05/18 11:46:51;;;;;;;;;1.00;1.00;;;;;17.60;54.81;99039.81;3567244;40;12823;-59
2021/05/18 11:49:19;;;;;;;;;2.00;0.00;;;;;17.99;54.77;99036.81;3575419;40;12709;-55
2021/05/18 11:51:52;;;;;;;;;1.00;1.00;;;;;18.13;53.61;99033.50;3576498;40;13858;-57
2021/05/18 11:54:37;;;;;;;;;1.00;0.75;;;;;18.37;55.12;99040.13;3566469;40;12567;-59
2021/05/18 11:57:05;;;;;;;;;0.25;0.25;;;;;18.77;54.27;99039.53;3566992;40;11972;-60
2021/05/18 11:59:36;;;;;;;;;1.00;0.00;;;;;17.99;55.25;99039.53;3577643;40;12163;-56
2021/05/18 12:02:05;;;;;;;;;2.00;1.00;;;;;17.25;55.87;99024.38;3576538;40;11712;-56
2021/05/18 12:04:39;;;;;;;;;1.00;1.00;;;;;17.13;57.69;99045.44;3576846;40;12812;-56
2021/05/18 12:07:12;;;;;;;;;1.00;1.00;;;;;17.10;58.34;99045.75;3576391;40;12221;-60
2021/05/18 12:09:43;;;;;;;;;1.00;1.00;;;;;16.76;59.29;99051.72;3565616;40;12896;-60
2021/05/18 12:12:15;;;;;;;;;2.25;1.00;;;;;16.44;60.87;99063.84;3573739;40;12758;-60
2021/05/18 12:14:47;;;;;;;;;0.50;0.00;;;;;15.65;62.46;99052.38;3566654;40;13306;-60
2021/05/18 12:17:31;;;;;;;;;2.25;2.25;;;;;15.99;62.77;99058.25;3571063;40;13269;-59
2021/05/18 12:20:01;;;;;;;;;2.25;2.25;;;;;16.24;62.06;99041.38;3576257;40;13944;-59
2021/05/18 12:22:28;;;;;;;;;1.50;1.50;;;;;16.38;60.42;99059.03;3567705;40;13952;-59
2021/05/18 12:24:57;;;;;;;;;0.00;0.00;;;;;16.70;60.20;99055.06;3572003;40;14054;-60
2021/05/18 12:27:25;;;;;;;;;0.00;0.00;;;;;16.58;59.08;99039.97;3574318;40;13410;-61
2021/05/18 12:30:00;;;;;;;;;3.00;1.00;;;;;16.34;60.15;99045.91;3571760;40;13136;-60
2021/05/18 12:32:38;;;;;;;;;1.25;1.00;;;;;16.13;59.72;99048.81;3566435;40;13494;-60
2021/05/18 12:35:06;;;;;;;;;2.00;1.00;;;;;16.25;56.76;99042.22;3565732;40;13294;-57
2021/05/18 12:37:54;;;;;;;;;0.00;0.00;;;;;16.87;55.19;99054.28;3566836;40;14155;-60
2021/05/18 12:40:34;;;;;;;;;3.75;1.00;;;;;17.01;55.68;99049.34;3566989;40;14162;-60
2021/05/18 12:43:23;;;;;;;;;1.00;0.00;;;;;16.92;54.58;99052.97;3575075;40;14047;-62
2021/05/18 12:46:11;;;;;;;;;1.00;1.00;;;;;16.81;56.28;99048.63;3574483;40;14039;-59
2021/05/18 12:48:42;;;;;;;;;1.00;1.00;;;;;17.28;56.02;99052.06;3566786;40;13411;-59
2021/05/18 12:51:19;;;;;;;;;2.25;1.00;;;;;16.97;55.74;99064.22;3574483;40;13581;-61
2021/05/18 12:53:47;;;;;;;;;6.75;2.00;;;;;16.68;56.64;99049.78;3572008;40;12990;-59
2021/05/18 12:56:31;;;;;;;;;2.50;1.00;;;;;16.70;56.46;99056.91;3573569;40;13309;-59
2021/05/18 12:59:08;;;;;;;;;3.50;1.00;;;;;16.61;56.56;99053.22;3573873;40;13277;-60
2021/05/18 13:01:45;;;;;;;;;3.00;1.00;;;;;17.01;56.03;99061.06;3567914;40;13296;-58
2021/05/18 13:04:14;;;;;;;;;1.25;1.25;;;;;17.41;54.93;99058.97;3568606;40;13489;-57
2021/05/18 13:06:49;;;;;;;;;7.75;3.00;;;;;17.53;53.21;99055.00;3569538;40;13214;-53
2021/05/18 13:13:56;;;;;;;;;2.00;2.00;;;;;17.75;53.41;99060.00;3611177;39;812953;-58
2021/05/18 13:16:29;;;;;;;;;6.00;2.00;;;;;17.77;54.24;99057.09;3625522;39;14075;-56
2021/05/18 13:19:09;;;;;;;;;3.50;2.00;;;;;17.75;54.20;99054.56;3624942;39;12752;-57
2021/05/18 13:21:50;;;;;;;;;2.25;1.25;;;;;18.27;54.86;99058.38;3624140;39;12914;-54
2021/05/18 13:26:57;;;;;;;;;5.50;3.00;;;;;18.07;53.72;99055.03;3624435;39;12315;-58
2021/05/18 13:29:28;;;;;;;;;3.00;2.75;;;;;18.42;52.77;99051.38;3626558;39;12608;-57
2021/05/18 13:31:56;;;;;;;;;3.25;0.50;;;;;18.44;52.89;99065.66;3626814;39;12345;-57
2021/05/18 13:34:43;;;;;;;;;9.50;4.50;;;;;18.80;53.40;99060.09;3626298;39;12076;-58
2021/05/18 13:37:11;;;;;;;;;1.75;1.75;;;;;18.68;52.28;99055.94;3625345;39;12288;-58
2021/05/18 13:39:38;;;;;;;;;4.00;1.00;;;;;19.22;51.58;99061.97;3624478;39;12067;-58
2021/05/18 13:42:06;;;;;;;;;2.00;2.00;;;;;18.79;51.86;99053.81;3624998;39;11659;-59
2021/05/18 13:44:37;;;;;;;;;2.25;2.00;;;;;18.63;53.03;99053.69;3625405;39;11544;-59
2021/05/18 13:47:05;;;;;;;;;2.00;1.00;;;;;18.41;51.62;99044.22;3626417;39;11656;-59
2021/05/18 13:49:33;;;;;;;;;1.00;1.00;;;;;18.45;52.25;99059.19;3628263;39;11953;-59
2021/05/18 13:52:12;;;;;;;;;2.25;1.00;;;;;18.74;52.38;99052.56;3625423;39;11919;-59
2021/05/18 13:54:39;;;;;;;;;6.25;3.75;;;;;18.08;53.71;99059.44;3625852;39;11926;-59
2021/05/18 13:57:07;;;;;;;;;12.50;3.00;;;;;18.04;55.43;99064.34;3625444;39;11903;-59
2021/05/18 13:59:34;;;;;;;;;2.00;1.50;;;;;18.04;53.87;99060.78;3626633;39;12593;-59
2021/05/18 14:02:02;;;;;;;;;7.75;1.00;;;;;17.83;54.28;99061.13;3626441;39;12344;-58
2021/05/18 14:04:30;;;;;;;;;3.00;1.50;;;;;17.89;53.65;99044.19;3624420;39;12743;-59
2021/05/18 14:10:20;;;;;;;;;1.00;1.00;;;;;17.73;55.36;99062.00;3624870;39;12685;-59
2021/05/18 14:12:48;;;;;;;;;2.75;1.75;;;;;17.73;55.11;99050.31;3625466;39;12379;-58
2021/05/18 14:15:15;;;;;;;;;3.00;0.25;;;;;17.70;56.70;99062.31;3628620;39;12424;-55
2021/05/18 14:17:42;;;;;;;;;2.00;2.00;;;;;17.67;57.86;99051.78;3624855;39;12413;-59
2021/05/18 14:20:10;;;;;;;;;1.25;1.25;;;;;18.01;55.82;99059.25;3623871;39;12211;-54
2021/05/18 14:22:38;;;;;;;;;1.50;1.50;;;;;18.11;55.92;99067.28;3625779;39;12443;-59
2021/05/18 14:25:07;;;;;;;;;3.00;1.25;;;;;18.32;52.67;99066.91;3626087;39;12408;-59
2021/05/18 14:27:39;;;;;;;;;1.50;1.25;;;;;18.65;53.62;99062.56;3626095;39;12421;-59
2021/05/18 14:30:11;;;;;;;;;2.00;2.00;;;;;18.89;51.57;99069.16;3623639;39;12107;-59
2021/05/18 14:32:41;;;;;;;;;2.00;1.00;;;;;18.85;51.71;99076.78;3617805;39;12067;-59
2021/05/18 14:35:14;;;;;;;;;1.25;1.00;;;;;18.25;51.18;99068.59;3617578;39;12110;-58
2021/05/18 14:37:44;;;;;;;;;0.00;0.00;;;;;18.37;51.69;99067.28;3621466;39;11980;-58
2021/05/18 14:43:06;;;;;;;;;1.25;1.00;;;;;18.03;53.96;99073.50;3618542;39;12153;-58
2021/05/18 14:45:37;;;;;;;;;1.00;1.00;;;;;17.69;54.51;99066.06;3618799;39;12471;-58
2021/05/18 14:56:08;;;;;;;;;1.25;1.25;;;;;17.04;58.30;99089.75;3620644;39;12689;-59
2021/05/18 14:58:36;;;;;;;;;2.25;2.00;;;;;17.27;58.66;99076.63;3617991;39;13252;-59
2021/05/18 15:01:05;;;;;;;;;2.00;2.00;;;;;17.64;58.25;99079.25;3620893;39;13218;-59
2021/05/18 15:03:34;;;;;;;;;2.00;2.00;;;;;18.05;56.71;99076.06;3620419;39;12849;-58
2021/05/18 15:06:02;;;;;;;;;1.00;1.00;;;;;18.16;58.48;99078.53;3617823;39;12985;-57
2021/05/18 15:08:29;;;;;;;;;1.00;1.00;;;;;18.05;57.98;99076.91;3617579;39;12466;-57
2021/05/18 15:11:05;;;;;;;;;1.00;1.00;;;;;18.41;56.49;99063.25;3617808;39;12322;-57
2021/05/18 15:13:33;;;;;;;;;2.00;2.00;;;;;18.69;55.58;99063.06;3624546;39;12317;-57
2021/05/18 15:16:02;;;;;;;;;4.25;2.00;;;;;18.69;54.46;99068.50;3619561;39;11934;-55
2021/05/18 15:18:33;;;;;;;;;1.00;1.00;;;;;18.80;55.41;99065.53;3617693;39;11774;-54
2021/05/18 15:21:02;;;;;;;;;3.00;2.00;;;;;18.29;55.23;99069.97;3622695;39;11923;-59
2021/05/18 15:23:30;;;;;;;;;2.00;2.00;;;;;18.52;55.59;99062.13;3621282;39;11819;-58
2021/05/18 15:25:59;;;;;;;;;1.25;1.25;;;;;19.04;54.87;99071.09;3618504;39;11857;-58
2021/05/18 15:28:26;;;;;;;;;2.00;2.00;;;;;19.02;55.12;99067.69;3622260;39;11819;-58
2021/05/18 15:30:55;;;;;;;;;2.00;2.00;;;;;18.78;55.15;99070.31;3624709;39;11790;-51
2021/05/18 15:33:23;;;;;;;;;2.00;1.50;;;;;18.54;55.81;99065.56;3619614;39;12484;-52
2021/05/18 15:35:50;;;;;;;;;3.00;2.00;;;;;18.18;56.20;99077.34;3618059;39;12011;-50
2021/05/18 15:38:19;;;;;;;;;1.00;1.00;;;;;18.78;54.77;99076.59;3622692;39;12194;-49
2021/05/18 15:40:46;;;;;;;;;1.00;1.00;;;;;18.60;54.14;99082.06;3620288;39;11937;-57
2021/05/18 15:43:14;;;;;;;;;1.25;1.00;;;;;18.31;54.72;99084.25;3612721;39;12236;-49
2021/05/18 15:45:41;;;;;;;;;1.00;1.00;;;;;18.23;54.89;99078.75;3619251;39;11659;-52
2021/05/18 15:48:09;;;;;;;;;1.75;1.25;;;;;18.03;56.21;99078.94;3625020;39;12086;-50
2021/05/18 15:50:37;;;;;;;;;1.00;1.00;;;;;18.27;55.34;99077.41;3619849;39;12314;-51
2021/05/18 15:53:04;;;;;;;;;2.00;2.00;;;;;18.12;56.51;99078.00;3621148;39;12845;-54
2021/05/18 15:55:32;;;;;;;;;1.50;1.50;;;;;18.31;55.94;99076.94;3619313;39;12461;-52
2021/05/18 15:57:59;;;;;;;;;2.00;2.00;;;;;18.70;56.03;99073.81;3617182;39;12459;-53
2021/05/18 16:00:27;;;;;;;;;1.00;1.00;;;;;18.60;55.64;99071.19;3618754;39;12511;-56
2021/05/18 16:02:54;;;;;;;;;2.50;2.00;;;;;18.12;57.20;99079.88;3619396;39;12218;-51
2021/05/18 16:05:21;;;;;;;;;2.00;2.00;;;;;17.54;60.49;99073.03;3619457;39;12631;-49
2021/05/18 16:08:03;;;;;;;;;2.00;2.00;;;;;17.50;60.44;99064.31;3617528;39;12578;-54
2021/05/18 16:10:47;;;;;;;;;5.00;2.00;;;;;17.40;60.60;99073.53;3617988;39;12712;-53
2021/05/18 16:13:15;;;;;;;;;3.50;2.00;;;;;17.78;59.18;99081.41;3622454;39;12584;-52
2021/05/18 16:15:43;;;;;;;;;2.00;2.00;;;;;18.30;57.63;99079.81;3618433;39;12870;-54
2021/05/18 16:18:10;;;;;;;;;2.00;2.00;;;;;18.46;57.95;99082.66;3619206;39;12820;-51
2021/05/18 16:20:37;;;;;;;;;2.00;2.00;;;;;18.62;57.98;99090.91;3617474;39;12416;-50
2021/05/18 16:23:11;;;;;;;;;2.75;2.00;;;;;18.50;55.92;99085.91;3620839;39;12177;-53
2021/05/18 16:25:38;;;;;;;;;2.25;2.00;;;;;18.13;55.64;99085.13;3617623;39;12799;-52
2021/05/18 16:28:06;;;;;;;;;5.25;3.00;;;;;17.82;56.54;99075.69;3621694;39;12322;-51
2021/05/18 16:30:33;;;;;;;;;1.00;1.00;;;;;17.67;55.02;99088.94;3618063;39;12629;-49
2021/05/18 16:33:02;;;;;;;;;2.25;2.25;;;;;17.80;54.24;99089.44;3617830;39;12408;-51
2021/05/18 16:35:30;;;;;;;;;5.00;5.00;;;;;17.80;54.72;99092.16;3620770;39;12560;-53
2021/05/18 16:37:58;;;;;;;;;9.50;7.25;;;;;17.61;55.14;99093.09;3620785;39;13096;-53
2021/05/18 16:40:26;;;;;;;;;5.50;3.25;;;;;17.48;56.04;99088.06;3617411;39;13122;-53
2021/05/18 16:42:53;;;;;;;;;2.25;1.75;;;;;17.25;55.51;99090.34;3617126;39;12944;-56
2021/05/18 16:45:21;;;;;;;;;3.25;2.50;;;;;17.19;56.57;99096.38;3617176;39;13318;-51
2021/05/18 16:47:48;;;;;;;;;4.50;2.75;;;;;17.54;55.88;99089.31;3624220;39;12813;-49
2021/05/18 16:50:16;;;;;;;;;3.00;3.00;;;;;17.38;56.39;99091.81;3616813;39;13157;-51
2021/05/18 16:52:43;;;;;;;;;2.50;1.25;;;;;17.32;57.07;99077.91;3619507;39;12840;-51
2021/05/18 16:55:12;;;;;;;;;3.50;3.50;;;;;17.40;57.02;99087.97;3617047;39;12614;-49
2021/05/18 16:57:41;;;;;;;;;3.25;3.00;;;;;17.29;58.25;99082.75;3617231;39;12821;-52
2021/05/18 17:00:11;;;;;;;;;7.00;5.25;;;;;17.34;57.82;99088.56;3617275;39;12853;-52
2021/05/18 17:02:38;;;;;;;;;5.00;5.00;;;;;17.26;58.21;99092.06;3621853;39;13095;-53
2021/05/18 17:05:08;;;;;;;;;4.00;4.00;;;;;17.26;57.58;99081.19;3618933;39;13096;-49
2021/05/18 17:07:36;;;;;;;;;6.00;4.75;;;;;17.21;58.41;99088.94;3625793;39;13050;-50
2021/05/18 17:10:06;;;;;;;;;3.00;3.00;;;;;17.20;57.31;99095.38;3617206;39;13127;-48
2021/05/18 17:12:34;;;;;;;;;2.50;2.00;;;;;16.97;58.19;99103.06;3616633;39;13132;-50
2021/05/18 17:15:03;;;;;;;;;2.00;2.00;;;;;17.07;57.25;99097.59;3616304;39;13021;-53